Lagoa da Prata, Brazil
Current Conditions -  °F | °C
As of 12:00 AM on Thursday 23 Oct 2014 (Local Time) from SBBH Reporting Station
Scattered Clouds Scattered Clouds  
Wind Chill: 68°   Ceiling: Unl
Heat Index: 68°   Visibility: 6mi
Dew Point: 59°   Wind: 10mph
Humidity: 73%   Direction: 70°ENE
Pressure: 30.21"   Gusts: NA
Location:  20.02°S, 45.54°W
Report Text: SBBH 230200Z 07009KT 9999 SCT025 SCT100 20/15 Q1023
Loading
Personal Weather Stations






























Interactive Weather Map
Tropical Storm Tracking
New forecast layout! Learn more

10-Day Weather Forecast

Advertisements
Track Severe Weather on mobile